Time;durP1;ratioP1;P1;durP2;ratioP2;P2;SDS_P1;SDS_P2;PMS_P1;PMS_P2;Temp;Humidity;BMP_temperature;BMP_pressure;BME280_temperature;BME280_humidity;BME280_pressure;Samples;Min_cycle;Max_cycle;Signal;HPM_P1;HPM_P2
2023/08/15 00:00:18;;;;;;;4.07;3.80;;;;;;;;;;5100451;28;20251;-65
2023/08/15 00:02:47;;;;;;;4.03;3.72;;;;;;;;;;5100317;28;20299;-65
2023/08/15 00:05:15;;;;;;;4.75;4.10;;;;;;;;;;5100041;28;20215;-65
2023/08/15 00:07:43;;;;;;;4.03;3.63;;;;;;;;;;5099796;28;20200;-65
2023/08/15 00:10:10;;;;;;;4.35;3.72;;;;;;;;;;5100035;28;20207;-65
2023/08/15 00:12:38;;;;;;;4.10;3.75;;;;;;;;;;5099428;28;20203;-65
2023/08/15 00:15:06;;;;;;;4.07;3.67;;;;;;;;;;5100207;28;20292;-65
2023/08/15 00:17:34;;;;;;;4.07;3.70;;;;;;;;;;5100212;28;20260;-65
2023/08/15 00:20:03;;;;;;;3.78;3.55;;;;;;;;;;5099573;28;20214;-65
2023/08/15 00:22:30;;;;;;;3.72;3.40;;;;;;;;;;5099892;28;20314;-64
2023/08/15 00:24:58;;;;;;;4.22;3.47;;;;;;;;;;5099510;28;20496;-64
2023/08/15 00:27:26;;;;;;;3.78;3.55;;;;;;;;;;5100049;28;20308;-64
2023/08/15 00:29:53;;;;;;;4.03;3.60;;;;;;;;;;5099542;28;20269;-65
2023/08/15 00:32:21;;;;;;;3.85;3.55;;;;;;;;;;5099611;28;20208;-65
2023/08/15 00:34:49;;;;;;;3.50;3.30;;;;;;;;;;5099583;28;21165;-65
2023/08/15 00:37:18;;;;;;;4.15;3.40;;;;;;;;;;5099897;28;20487;-65
2023/08/15 00:39:45;;;;;;;3.55;3.25;;;;;;;;;;5099920;28;20212;-65
2023/08/15 00:42:13;;;;;;;3.40;3.13;;;;;;;;;;5099612;28;20211;-65
2023/08/15 00:44:42;;;;;;;3.95;3.40;;;;;;;;;;5099524;28;20208;-65
2023/08/15 00:47:10;;;;;;;3.20;2.90;;;;;;;;;;5099855;28;20227;-65
2023/08/15 00:49:38;;;;;;;3.65;3.05;;;;;;;;;;5099670;28;20491;-65
2023/08/15 00:52:06;;;;;;;3.08;2.88;;;;;;;;;;5099258;28;20250;-65
2023/08/15 00:54:35;;;;;;;3.35;3.15;;;;;;;;;;5098780;28;20552;-66
2023/08/15 00:57:04;;;;;;;3.22;3.03;;;;;;;;;;5098398;28;20206;-65
2023/08/15 00:59:31;;;;;;;3.30;2.95;;;;;;;;;;5099040;28;20203;-65
2023/08/15 01:02:00;;;;;;;3.58;3.28;;;;;;;;;;5099225;28;20568;-65
2023/08/15 01:04:28;;;;;;;3.75;3.30;;;;;;;;;;5098917;28;20203;-65
2023/08/15 01:06:56;;;;;;;3.15;2.95;;;;;;;;;;5099293;28;20326;-65
2023/08/15 01:09:23;;;;;;;4.55;3.53;;;;;;;;;;5099044;28;20211;-64
2023/08/15 01:12:03;;;;;;;3.35;3.03;;;;;;;;;;5098969;28;20219;-65
2023/08/15 01:14:37;;;;;;;3.00;2.80;;;;;;;;;;5098857;28;20546;-65
2023/08/15 01:17:06;;;;;;;3.97;3.10;;;;;;;;;;5098776;28;20207;-65
2023/08/15 01:19:37;;;;;;;3.28;2.80;;;;;;;;;;5099319;28;20461;-65
2023/08/15 01:22:06;;;;;;;3.38;3.03;;;;;;;;;;5098722;28;20204;-65
2023/08/15 01:24:35;;;;;;;4.50;3.40;;;;;;;;;;5099007;28;20294;-65
2023/08/15 01:27:02;;;;;;;3.30;3.00;;;;;;;;;;5098284;28;20231;-65
2023/08/15 01:29:30;;;;;;;5.07;3.20;;;;;;;;;;5097924;28;20200;-65
2023/08/15 01:32:02;;;;;;;3.15;2.95;;;;;;;;;;5098260;28;20204;-65
2023/08/15 01:34:33;;;;;;;3.53;3.22;;;;;;;;;;5098551;28;20211;-65
2023/08/15 01:37:04;;;;;;;3.72;3.35;;;;;;;;;;5098558;28;20298;-65
2023/08/15 01:39:32;;;;;;;3.45;3.20;;;;;;;;;;5098381;28;20599;-65
2023/08/15 01:42:03;;;;;;;4.15;3.42;;;;;;;;;;5098198;28;20475;-65
2023/08/15 01:44:31;;;;;;;4.03;3.30;;;;;;;;;;5098052;28;20203;-64
2023/08/15 01:46:59;;;;;;;3.78;3.47;;;;;;;;;;5098584;28;20219;-64
2023/08/15 01:49:27;;;;;;;3.50;3.30;;;;;;;;;;5098468;28;20204;-65
2023/08/15 01:51:57;;;;;;;3.20;3.00;;;;;;;;;;5098132;28;20203;-65
2023/08/15 01:54:24;;;;;;;4.25;2.88;;;;;;;;;;5098400;28;20606;-65
2023/08/15 01:56:52;;;;;;;3.53;3.33;;;;;;;;;;5097438;28;20203;-65
2023/08/15 01:59:21;;;;;;;3.50;3.30;;;;;;;;;;5097344;28;20474;-65
2023/08/15 02:01:48;;;;;;;3.50;3.20;;;;;;;;;;5097902;28;20214;-65
2023/08/15 02:04:16;;;;;;;3.65;3.35;;;;;;;;;;5098094;28;20483;-65
2023/08/15 02:06:43;;;;;;;3.50;3.20;;;;;;;;;;5098239;28;20288;-64
2023/08/15 02:09:11;;;;;;;3.47;3.13;;;;;;;;;;5098492;28;20208;-65
2023/08/15 02:17:19;;;;;;;3.33;3.13;;;;;;;;;;5148551;22;20236;-64
2023/08/15 02:19:46;;;;;;;3.45;3.15;;;;;;;;;;5077109;28;20671;-64
2023/08/15 02:22:14;;;;;;;3.90;3.60;;;;;;;;;;5077213;28;20513;-64
2023/08/15 02:24:41;;;;;;;3.90;3.60;;;;;;;;;;5077255;28;20208;-64
2023/08/15 02:27:08;;;;;;;4.20;3.58;;;;;;;;;;5077179;28;20239;-64
2023/08/15 02:29:35;;;;;;;3.72;3.35;;;;;;;;;;5077541;28;20643;-64
2023/08/15 02:32:03;;;;;;;3.60;3.40;;;;;;;;;;5077142;28;20576;-64
2023/08/15 02:34:31;;;;;;;3.40;3.13;;;;;;;;;;5077457;28;20212;-64
2023/08/15 02:36:59;;;;;;;3.20;3.00;;;;;;;;;;5077223;28;20204;-64
2023/08/15 02:39:26;;;;;;;3.25;2.95;;;;;;;;;;5076885;28;20208;-64
2023/08/15 02:41:53;;;;;;;3.30;3.00;;;;;;;;;;5077152;28;20210;-64
2023/08/15 02:44:21;;;;;;;5.32;3.10;;;;;;;;;;5076776;28;20212;-64
2023/08/15 02:46:48;;;;;;;3.67;3.35;;;;;;;;;;5077190;28;20518;-64
2023/08/15 02:49:15;;;;;;;3.42;3.13;;;;;;;;;;5076994;28;20204;-64
2023/08/15 02:51:44;;;;;;;3.40;3.20;;;;;;;;;;5078049;28;20208;-64
2023/08/15 02:54:11;;;;;;;3.42;3.22;;;;;;;;;;5080821;28;20662;-65
2023/08/15 02:56:39;;;;;;;4.40;3.58;;;;;;;;;;5081055;28;20235;-65
2023/08/15 02:59:06;;;;;;;3.60;3.30;;;;;;;;;;5081127;28;20219;-65
2023/08/15 03:01:33;;;;;;;3.55;3.22;;;;;;;;;;5081149;28;20208;-65
2023/08/15 03:04:01;;;;;;;5.05;3.20;;;;;;;;;;5081093;28;20204;-65
2023/08/15 03:06:28;;;;;;;4.25;3.00;;;;;;;;;;5081307;28;20220;-64
2023/08/15 03:08:57;;;;;;;3.40;3.10;;;;;;;;;;5080808;28;20207;-65
2023/08/15 03:11:24;;;;;;;3.55;3.25;;;;;;;;;;5081268;28;20266;-65
2023/08/15 03:13:52;;;;;;;3.47;2.95;;;;;;;;;;5081454;28;20442;-65
2023/08/15 03:16:18;;;;;;;2.95;2.75;;;;;;;;;;5080960;28;20243;-64
2023/08/15 03:18:45;;;;;;;3.15;2.95;;;;;;;;;;5080742;28;20201;-64
2023/08/15 03:21:12;;;;;;;3.28;3.08;;;;;;;;;;5080582;28;20274;-64
2023/08/15 03:23:40;;;;;;;4.60;3.03;;;;;;;;;;5080535;28;20204;-64
2023/08/15 03:26:08;;;;;;;3.63;3.33;;;;;;;;;;5080355;28;20208;-64
2023/08/15 03:28:36;;;;;;;3.05;2.85;;;;;;;;;;5080309;28;20234;-64
2023/08/15 03:31:06;;;;;;;3.50;2.92;;;;;;;;;;5079859;28;20215;-64
2023/08/15 03:33:34;;;;;;;3.15;2.88;;;;;;;;;;5079762;28;20200;-64
2023/08/15 03:36:01;;;;;;;2.80;2.60;;;;;;;;;;5080211;28;20214;-64
2023/08/15 03:38:29;;;;;;;2.88;2.67;;;;;;;;;;5080304;28;20201;-64
2023/08/15 03:41:02;;;;;;;3.20;2.95;;;;;;;;;;5080395;28;20492;-65
2023/08/15 03:43:31;;;;;;;3.03;2.83;;;;;;;;;;5080338;28;20204;-65
2023/08/15 03:45:58;;;;;;;3.05;2.85;;;;;;;;;;5080125;28;20215;-65
2023/08/15 03:48:25;;;;;;;3.28;3.00;;;;;;;;;;5080032;28;20228;-65
2023/08/15 03:50:54;;;;;;;3.30;3.00;;;;;;;;;;5080389;28;20215;-65
2023/08/15 03:53:22;;;;;;;3.25;2.95;;;;;;;;;;5079989;28;20204;-65
2023/08/15 03:55:50;;;;;;;2.90;2.70;;;;;;;;;;5080264;28;20212;-65
2023/08/15 03:58:17;;;;;;;2.83;2.63;;;;;;;;;;5079995;28;20622;-65
2023/08/15 04:00:46;;;;;;;2.88;2.67;;;;;;;;;;5079793;28;20204;-65
2023/08/15 04:03:14;;;;;;;2.92;2.72;;;;;;;;;;5079492;28;20489;-65
2023/08/15 04:05:41;;;;;;;2.78;2.58;;;;;;;;;;5080158;28;20254;-65
2023/08/15 04:08:08;;;;;;;2.92;2.65;;;;;;;;;;5079820;28;20232;-65
2023/08/15 04:10:39;;;;;;;2.80;2.60;;;;;;;;;;5079551;28;20204;-65
2023/08/15 04:13:07;;;;;;;3.00;2.80;;;;;;;;;;5079732;28;20488;-64
2023/08/15 04:15:34;;;;;;;2.83;2.63;;;;;;;;;;5079172;28;20243;-64
2023/08/15 04:18:03;;;;;;;3.03;2.72;;;;;;;;;;5079777;28;20201;-64
2023/08/15 04:20:31;;;;;;;3.10;2.65;;;;;;;;;;5078701;28;20211;-64
2023/08/15 04:22:58;;;;;;;3.40;3.10;;;;;;;;;;5078907;28;20205;-65
2023/08/15 04:25:27;;;;;;;2.85;2.60;;;;;;;;;;5078706;28;20203;-65
2023/08/15 04:27:54;;;;;;;3.10;2.90;;;;;;;;;;5078785;28;20234;-65
2023/08/15 04:30:21;;;;;;;2.85;2.65;;;;;;;;;;5078871;28;20204;-64
2023/08/15 04:32:49;;;;;;;3.20;2.90;;;;;;;;;;5079375;28;20327;-65
2023/08/15 04:35:17;;;;;;;3.28;2.97;;;;;;;;;;5077600;28;20496;-65
2023/08/15 04:37:45;;;;;;;3.35;3.00;;;;;;;;;;5078805;28;20204;-65
2023/08/15 04:40:13;;;;;;;2.95;2.75;;;;;;;;;;5078334;28;20209;-64
2023/08/15 04:42:41;;;;;;;3.00;2.80;;;;;;;;;;5078756;28;20204;-64
2023/08/15 04:45:09;;;;;;;2.70;2.50;;;;;;;;;;5078170;28;20204;-65
2023/08/15 04:47:36;;;;;;;2.90;2.70;;;;;;;;;;5078123;28;20224;-64
2023/08/15 04:50:04;;;;;;;2.95;2.75;;;;;;;;;;5078525;28;20204;-64
2023/08/15 04:52:32;;;;;;;3.17;2.70;;;;;;;;;;5078385;28;20204;-64
2023/08/15 04:55:00;;;;;;;2.75;2.55;;;;;;;;;;5078169;28;20208;-65
2023/08/15 04:57:27;;;;;;;2.85;2.65;;;;;;;;;;5078140;28;20204;-65
2023/08/15 04:59:54;;;;;;;3.10;2.55;;;;;;;;;;5078581;28;20204;-65
2023/08/15 05:02:22;;;;;;;3.00;2.80;;;;;;;;;;5078278;28;20212;-65
2023/08/15 05:04:49;;;;;;;2.65;2.53;;;;;;;;;;5077931;28;20211;-65
2023/08/15 05:07:16;;;;;;;3.00;2.80;;;;;;;;;;5076628;28;20227;-65
2023/08/15 05:09:46;;;;;;;2.90;2.70;;;;;;;;;;5077735;28;20204;-65
2023/08/15 05:12:13;;;;;;;3.00;2.80;;;;;;;;;;5077733;28;20231;-65
2023/08/15 05:14:41;;;;;;;3.22;2.92;;;;;;;;;;5076936;28;20217;-65
2023/08/15 05:17:08;;;;;;;3.10;2.80;;;;;;;;;;5076448;28;20307;-64
2023/08/15 05:19:35;;;;;;;3.00;2.80;;;;;;;;;;5077564;28;20214;-65
2023/08/15 05:22:03;;;;;;;3.25;2.95;;;;;;;;;;5077768;28;20208;-65
2023/08/15 05:24:30;;;;;;;3.00;2.80;;;;;;;;;;5077223;28;20204;-64
2023/08/15 05:26:59;;;;;;;3.22;3.03;;;;;;;;;;5077154;28;20212;-64
2023/08/15 05:29:26;;;;;;;3.20;2.90;;;;;;;;;;5077113;28;20204;-64
2023/08/15 05:31:53;;;;;;;3.28;3.03;;;;;;;;;;5077228;28;20196;-64
2023/08/15 05:34:21;;;;;;;3.33;3.03;;;;;;;;;;5077888;28;20200;-65
2023/08/15 05:36:55;;;;;;;2.92;2.70;;;;;;;;;;5135335;27;20550;-65
2023/08/15 05:39:23;;;;;;;3.28;2.97;;;;;;;;;;5135007;27;20202;-65
2023/08/15 05:41:50;;;;;;;3.17;2.97;;;;;;;;;;5135328;27;20215;-65
2023/08/15 05:44:17;;;;;;;3.40;3.13;;;;;;;;;;5134833;27;20216;-65
2023/08/15 05:46:45;;;;;;;3.40;3.10;;;;;;;;;;5134882;27;20593;-65
2023/08/15 05:49:12;;;;;;;3.58;3.38;;;;;;;;;;5134712;27;20202;-65
2023/08/15 05:51:39;;;;;;;3.38;3.03;;;;;;;;;;5135242;27;20208;-65
2023/08/15 05:54:08;;;;;;;3.90;3.53;;;;;;;;;;5135130;27;20202;-65
2023/08/15 05:56:35;;;;;;;3.75;3.45;;;;;;;;;;5135206;27;20218;-65
2023/08/15 05:59:03;;;;;;;3.65;3.35;;;;;;;;;;5135251;27;20214;-65
2023/08/15 06:01:30;;;;;;;3.50;3.30;;;;;;;;;;5134728;27;20544;-65
2023/08/15 06:03:57;;;;;;;3.60;3.40;;;;;;;;;;5133631;27;20474;-65
2023/08/15 06:06:25;;;;;;;3.90;3.50;;;;;;;;;;5134112;27;20199;-65
2023/08/15 06:08:52;;;;;;;3.70;3.40;;;;;;;;;;5133630;27;20202;-65
2023/08/15 06:11:21;;;;;;;4.10;3.53;;;;;;;;;;5134356;27;20255;-65
2023/08/15 06:13:48;;;;;;;4.10;3.72;;;;;;;;;;5134326;27;20202;-65
2023/08/15 06:16:16;;;;;;;4.07;3.78;;;;;;;;;;5134128;27;20230;-66
2023/08/15 06:18:43;;;;;;;4.25;3.72;;;;;;;;;;5134258;27;20203;-64
2023/08/15 06:21:10;;;;;;;4.07;3.78;;;;;;;;;;5134843;27;20194;-65
2023/08/15 06:23:38;;;;;;;4.10;3.80;;;;;;;;;;5133884;27;20680;-65
2023/08/15 06:26:05;;;;;;;4.40;4.10;;;;;;;;;;5134421;27;20205;-65
2023/08/15 06:28:34;;;;;;;4.50;4.20;;;;;;;;;;5133428;27;20205;-65
2023/08/15 06:31:01;;;;;;;4.40;4.10;;;;;;;;;;5133237;27;20203;-65
2023/08/15 06:33:28;;;;;;;5.82;5.30;;;;;;;;;;5133443;27;20578;-65
2023/08/15 06:35:56;;;;;;;5.28;4.82;;;;;;;;;;5133287;27;20246;-65
2023/08/15 06:38:25;;;;;;;5.55;5.15;;;;;;;;;;5132922;27;20202;-65
2023/08/15 06:40:52;;;;;;;5.70;5.30;;;;;;;;;;5133574;27;20213;-65
2023/08/15 06:43:20;;;;;;;6.10;5.60;;;;;;;;;;5133452;27;20229;-65
2023/08/15 06:45:48;;;;;;;5.75;5.25;;;;;;;;;;5132821;27;20208;-65
2023/08/15 06:48:16;;;;;;;5.90;5.50;;;;;;;;;;5119742;27;20504;-65
2023/08/15 06:50:43;;;;;;;5.32;4.88;;;;;;;;;;5120140;28;20203;-65
2023/08/15 06:53:11;;;;;;;5.82;5.43;;;;;;;;;;5118315;28;20198;-65
2023/08/15 06:55:38;;;;;;;5.82;5.32;;;;;;;;;;5119524;28;20242;-65
2023/08/15 06:58:05;;;;;;;5.30;4.90;;;;;;;;;;5119453;28;20222;-65
2023/08/15 07:00:33;;;;;;;4.47;4.10;;;;;;;;;;5119048;28;20199;-65
2023/08/15 07:03:02;;;;;;;5.03;4.60;;;;;;;;;;5118744;28;20602;-65
2023/08/15 07:05:29;;;;;;;5.63;5.22;;;;;;;;;;5119137;28;20210;-65
2023/08/15 07:07:59;;;;;;;5.13;4.75;;;;;;;;;;5119138;28;20207;-65
2023/08/15 07:10:26;;;;;;;5.30;4.85;;;;;;;;;;5119160;28;20583;-65
2023/08/15 07:12:53;;;;;;;6.35;5.95;;;;;;;;;;5119164;28;20276;-65
2023/08/15 07:15:21;;;;;;;6.97;6.47;;;;;;;;;;5119522;28;20226;-65
2023/08/15 07:17:48;;;;;;;6.07;5.68;;;;;;;;;;5119813;28;20203;-65
2023/08/15 07:20:17;;;;;;;6.10;5.60;;;;;;;;;;5119098;28;20198;-65
2023/08/15 07:22:44;;;;;;;8.55;7.88;;;;;;;;;;5119087;28;20270;-65
2023/08/15 07:25:12;;;;;;;7.78;7.13;;;;;;;;;;5118759;28;20571;-65
2023/08/15 07:27:40;;;;;;;7.45;6.95;;;;;;;;;;5118808;28;20582;-65
2023/08/15 07:30:08;;;;;;;8.25;7.70;;;;;;;;;;5118879;28;20301;-65
2023/08/15 07:32:36;;;;;;;8.30;7.60;;;;;;;;;;5119250;28;20214;-65
2023/08/15 07:35:04;;;;;;;8.60;7.88;;;;;;;;;;5117683;28;20757;-65
2023/08/15 07:37:33;;;;;;;7.90;7.15;;;;;;;;;;5118017;28;20203;-65
2023/08/15 07:40:05;;;;;;;8.27;7.55;;;;;;;;;;5118446;28;20211;-65
2023/08/15 07:42:33;;;;;;;8.85;8.25;;;;;;;;;;5118216;27;20203;-65
2023/08/15 07:45:00;;;;;;;8.93;8.18;;;;;;;;;;5117452;28;20209;-65
2023/08/15 07:47:28;;;;;;;8.60;8.00;;;;;;;;;;5118131;28;20199;-65
2023/08/15 07:50:11;;;;;;;8.40;7.82;;;;;;;;;;5117700;28;20574;-65
2023/08/15 07:52:39;;;;;;;8.90;8.30;;;;;;;;;;5118460;28;20214;-65
2023/08/15 07:55:07;;;;;;;9.13;8.52;;;;;;;;;;5118231;28;20217;-69
2023/08/15 07:57:35;;;;;;;8.00;7.47;;;;;;;;;;5117871;28;20199;-65
2023/08/15 08:00:03;;;;;;;8.48;7.88;;;;;;;;;;5116914;28;20203;-65
2023/08/15 08:02:30;;;;;;;9.10;8.50;;;;;;;;;;5118248;28;20609;-65
2023/08/15 08:04:58;;;;;;;8.43;7.82;;;;;;;;;;5117528;28;20314;-65
2023/08/15 08:07:25;;;;;;;9.23;8.52;;;;;;;;;;5117900;28;20282;-65
2023/08/15 08:09:54;;;;;;;9.68;8.93;;;;;;;;;;5117285;28;20203;-65
2023/08/15 08:12:22;;;;;;;9.60;8.98;;;;;;;;;;5117400;28;20203;-66
2023/08/15 08:14:49;;;;;;;10.02;9.25;;;;;;;;;;5118098;28;20268;-65
2023/08/15 08:17:16;;;;;;;9.23;8.60;;;;;;;;;;5117366;28;20218;-65
2023/08/15 08:19:44;;;;;;;9.55;8.85;;;;;;;;;;5117302;28;20221;-65
2023/08/15 08:22:11;;;;;;;9.90;9.20;;;;;;;;;;5118175;28;20499;-65
2023/08/15 08:24:38;;;;;;;9.27;8.60;;;;;;;;;;5116627;28;20209;-65
2023/08/15 08:27:08;;;;;;;10.07;9.27;;;;;;;;;;5117289;28;20231;-66
2023/08/15 08:29:35;;;;;;;10.23;9.32;;;;;;;;;;5117036;28;20301;-65
2023/08/15 08:32:03;;;;;;;9.95;9.07;;;;;;;;;;5115676;28;20264;-65
2023/08/15 08:34:30;;;;;;;9.27;8.68;;;;;;;;;;5116045;28;20203;-65
2023/08/15 08:36:57;;;;;;;9.60;8.90;;;;;;;;;;5116642;28;20227;-65
2023/08/15 08:39:25;;;;;;;9.60;8.90;;;;;;;;;;5117296;28;20225;-65
2023/08/15 08:41:52;;;;;;;9.60;8.90;;;;;;;;;;5116932;28;20782;-65
2023/08/15 08:44:22;;;;;;;9.88;9.18;;;;;;;;;;5116769;28;20216;-65
2023/08/15 08:46:49;;;;;;;9.07;8.38;;;;;;;;;;5116537;28;20210;-65
2023/08/15 08:49:17;;;;;;;9.48;8.70;;;;;;;;;;5116244;28;20203;-65
2023/08/15 08:51:44;;;;;;;9.38;8.68;;;;;;;;;;5114851;28;20207;-65
2023/08/15 08:54:11;;;;;;;8.68;8.07;;;;;;;;;;5115818;28;20217;-65
2023/08/15 08:56:41;;;;;;;9.00;8.40;;;;;;;;;;5116238;28;20237;-65
2023/08/15 08:59:11;;;;;;;9.50;8.65;;;;;;;;;;5115718;28;20209;-65
2023/08/15 09:01:40;;;;;;;9.50;8.65;;;;;;;;;;5116327;28;20202;-65
2023/08/15 09:04:08;;;;;;;9.15;8.45;;;;;;;;;;5115357;28;20486;-65
2023/08/15 09:06:35;;;;;;;8.93;8.32;;;;;;;;;;5115247;28;20198;-65
2023/08/15 09:09:03;;;;;;;9.05;8.45;;;;;;;;;;5115455;28;20203;-66
2023/08/15 09:11:34;;;;;;;9.02;8.35;;;;;;;;;;5115513;28;20309;-65
2023/08/15 09:14:03;;;;;;;9.05;8.35;;;;;;;;;;5116389;28;20211;-65
2023/08/15 09:16:31;;;;;;;8.07;7.57;;;;;;;;;;5115026;28;20561;-65
2023/08/15 09:19:01;;;;;;;8.10;7.60;;;;;;;;;;5116196;28;20495;-65
2023/08/15 09:21:28;;;;;;;8.85;8.15;;;;;;;;;;5115691;28;20199;-65
2023/08/15 09:23:59;;;;;;;8.70;8.10;;;;;;;;;;5115639;28;20282;-66
2023/08/15 09:26:26;;;;;;;8.40;7.80;;;;;;;;;;5116039;28;20199;-65
2023/08/15 09:28:54;;;;;;;8.98;8.38;;;;;;;;;;5116346;28;20199;-65
2023/08/15 09:31:21;;;;;;;8.50;7.90;;;;;;;;;;5115526;28;20226;-65
2023/08/15 09:33:48;;;;;;;8.77;8.18;;;;;;;;;;5116055;28;20205;-65
2023/08/15 09:36:17;;;;;;;8.90;8.30;;;;;;;;;;5115478;28;20664;-66
2023/08/15 09:38:44;;;;;;;8.10;7.60;;;;;;;;;;5116621;28;20312;-65
2023/08/15 09:41:13;;;;;;;8.90;8.30;;;;;;;;;;5116268;28;20202;-65
2023/08/15 09:43:51;;;;;;;8.85;8.25;;;;;;;;;;5115874;28;20226;-65
2023/08/15 09:46:18;;;;;;;8.90;8.30;;;;;;;;;;5115722;28;20202;-65
2023/08/15 09:48:47;;;;;;;8.63;8.02;;;;;;;;;;5116153;28;20256;-65
2023/08/15 09:51:15;;;;;;;9.02;8.38;;;;;;;;;;5116342;28;20217;-65
2023/08/15 09:53:45;;;;;;;9.25;8.60;;;;;;;;;;5115466;28;20523;-65
2023/08/15 09:56:12;;;;;;;8.82;8.23;;;;;;;;;;5116030;28;20266;-65
2023/08/15 09:58:40;;;;;;;8.88;8.27;;;;;;;;;;5114965;28;20290;-65
2023/08/15 10:01:08;;;;;;;8.55;7.95;;;;;;;;;;5115480;28;20203;-65
2023/08/15 10:03:37;;;;;;;9.13;8.43;;;;;;;;;;5115207;28;20264;-65
2023/08/15 10:06:07;;;;;;;8.95;8.35;;;;;;;;;;5114607;28;20213;-66
2023/08/15 10:08:35;;;;;;;9.02;8.43;;;;;;;;;;5116106;28;20203;-65
2023/08/15 10:11:05;;;;;;;8.13;7.53;;;;;;;;;;5115590;28;20301;-67
2023/08/15 10:13:33;;;;;;;9.15;8.35;;;;;;;;;;5115045;28;20587;-65
2023/08/15 10:16:01;;;;;;;8.48;7.88;;;;;;;;;;5114757;28;20213;-65
2023/08/15 10:18:30;;;;;;;8.23;7.72;;;;;;;;;;5114624;28;20294;-65
2023/08/15 10:20:58;;;;;;;7.80;7.30;;;;;;;;;;5114291;28;20203;-66
2023/08/15 10:23:25;;;;;;;8.25;7.65;;;;;;;;;;5118315;28;20203;-65
2023/08/15 10:25:53;;;;;;;7.90;7.38;;;;;;;;;;5119333;28;20199;-65
2023/08/15 10:28:24;;;;;;;7.95;7.45;;;;;;;;;;5118915;28;20207;-65
2023/08/15 10:30:52;;;;;;;8.18;7.57;;;;;;;;;;5118504;28;20203;-65
2023/08/15 10:33:20;;;;;;;7.90;7.40;;;;;;;;;;5118240;28;20195;-65
2023/08/15 10:36:06;;;;;;;8.10;7.60;;;;;;;;;;5118111;28;20348;-65
2023/08/15 10:38:37;;;;;;;8.23;7.63;;;;;;;;;;5118121;28;20194;-66
2023/08/15 10:41:05;;;;;;;7.72;7.13;;;;;;;;;;5118914;28;20579;-65
2023/08/15 10:43:35;;;;;;;7.70;7.10;;;;;;;;;;5118679;28;20303;-65
2023/08/15 10:46:04;;;;;;;7.60;7.03;;;;;;;;;;5118296;28;20275;-66
2023/08/15 10:48:38;;;;;;;7.50;6.90;;;;;;;;;;5118805;28;20199;-65
2023/08/15 10:51:05;;;;;;;7.43;6.93;;;;;;;;;;5119087;28;20280;-65
2023/08/15 10:53:32;;;;;;;7.10;6.60;;;;;;;;;;5119210;28;20272;-65
2023/08/15 10:56:00;;;;;;;7.18;6.57;;;;;;;;;;5117803;28;20209;-65
2023/08/15 10:58:27;;;;;;;7.18;6.68;;;;;;;;;;5118613;28;20622;-65
2023/08/15 11:00:56;;;;;;;6.90;6.40;;;;;;;;;;5118576;28;20203;-65
2023/08/15 11:03:23;;;;;;;7.32;6.75;;;;;;;;;;5118394;28;20593;-65
2023/08/15 11:05:51;;;;;;;7.63;6.95;;;;;;;;;;5117441;28;20594;-65
2023/08/15 11:08:20;;;;;;;7.20;6.70;;;;;;;;;;5118545;28;20305;-65
2023/08/15 11:10:48;;;;;;;7.07;6.57;;;;;;;;;;5118440;28;20214;-65
2023/08/15 11:13:17;;;;;;;7.15;6.65;;;;;;;;;;5117881;28;20210;-65
2023/08/15 11:15:44;;;;;;;7.00;6.50;;;;;;;;;;5117826;28;20309;-65
2023/08/15 11:18:13;;;;;;;7.05;6.35;;;;;;;;;;5116801;28;20227;-65
2023/08/15 11:20:41;;;;;;;7.18;6.57;;;;;;;;;;5117738;28;20203;-65
2023/08/15 11:23:08;;;;;;;7.57;6.97;;;;;;;;;;5117534;28;20203;-65
2023/08/15 11:25:35;;;;;;;7.57;6.93;;;;;;;;;;5117610;28;20222;-65
2023/08/15 11:28:03;;;;;;;6.97;6.47;;;;;;;;;;5117735;28;20202;-65
2023/08/15 11:30:30;;;;;;;6.90;6.40;;;;;;;;;;5117462;28;20210;-65
2023/08/15 11:32:57;;;;;;;7.25;6.75;;;;;;;;;;5117484;28;20571;-65
2023/08/15 11:35:26;;;;;;;6.22;5.82;;;;;;;;;;5117866;28;20235;-65
2023/08/15 11:37:54;;;;;;;7.13;6.53;;;;;;;;;;5117234;28;20214;-65
2023/08/15 11:40:22;;;;;;;6.90;6.40;;;;;;;;;;5118032;28;20599;-65
2023/08/15 11:42:50;;;;;;;6.78;6.28;;;;;;;;;;5118304;28;20242;-65
2023/08/15 11:45:21;;;;;;;7.20;6.60;;;;;;;;;;5118185;28;20205;-65
2023/08/15 11:47:58;;;;;;;7.28;6.57;;;;;;;;;;5117238;28;20857;-65
2023/08/15 11:50:28;;;;;;;6.53;6.13;;;;;;;;;;5117610;28;20237;-65
2023/08/15 11:52:55;;;;;;;6.57;6.07;;;;;;;;;;5117705;28;20601;-65
2023/08/15 11:55:23;;;;;;;7.07;6.57;;;;;;;;;;5117053;28;20199;-65
2023/08/15 11:57:51;;;;;;;6.43;6.03;;;;;;;;;;5116264;28;20230;-65
2023/08/15 12:00:19;;;;;;;6.78;6.28;;;;;;;;;;5117040;28;20210;-65
2023/08/15 12:02:47;;;;;;;6.55;5.95;;;;;;;;;;5116507;28;20220;-66
2023/08/15 12:05:15;;;;;;;6.80;6.30;;;;;;;;;;5116479;28;20594;-66
2023/08/15 12:07:44;;;;;;;7.30;6.70;;;;;;;;;;5116747;28;20248;-65
2023/08/15 12:10:13;;;;;;;6.80;6.30;;;;;;;;;;5116559;28;20597;-65
2023/08/15 12:12:41;;;;;;;6.97;6.47;;;;;;;;;;5116621;28;20626;-65
2023/08/15 12:15:10;;;;;;;6.80;6.20;;;;;;;;;;5116677;27;20199;-65
2023/08/15 12:17:38;;;;;;;7.47;6.88;;;;;;;;;;5116152;28;20227;-66
2023/08/15 12:20:07;;;;;;;6.93;6.40;;;;;;;;;;5115662;28;20199;-65
2023/08/15 12:22:34;;;;;;;7.50;6.90;;;;;;;;;;5116404;28;20214;-65
2023/08/15 12:25:04;;;;;;;7.07;6.53;;;;;;;;;;5116131;28;20202;-66
2023/08/15 12:27:32;;;;;;;6.85;6.35;;;;;;;;;;5116273;28;20591;-65
2023/08/15 12:29:59;;;;;;;6.85;6.25;;;;;;;;;;5116793;28;20207;-65
2023/08/15 12:32:27;;;;;;;7.57;6.93;;;;;;;;;;5116136;28;20202;-65
2023/08/15 12:34:54;;;;;;;6.68;6.28;;;;;;;;;;5115449;28;20231;-65
2023/08/15 12:37:21;;;;;;;7.50;7.00;;;;;;;;;;5115725;28;20227;-65
2023/08/15 12:39:49;;;;;;;6.93;6.43;;;;;;;;;;5116454;28;20213;-65
2023/08/15 12:42:17;;;;;;;7.30;6.80;;;;;;;;;;5115565;28;20210;-66
2023/08/15 12:44:45;;;;;;;7.25;6.55;;;;;;;;;;5115314;28;20206;-66
2023/08/15 12:47:12;;;;;;;7.00;6.40;;;;;;;;;;5116224;28;20199;-65
2023/08/15 12:49:39;;;;;;;7.15;6.55;;;;;;;;;;5115684;28;20205;-66
2023/08/15 12:52:07;;;;;;;6.70;6.20;;;;;;;;;;5115725;28;20633;-65
2023/08/15 12:54:35;;;;;;;6.90;6.38;;;;;;;;;;5116108;28;20593;-65
2023/08/15 12:57:02;;;;;;;6.95;6.35;;;;;;;;;;5115567;28;20323;-66
2023/08/15 12:59:31;;;;;;;6.88;6.40;;;;;;;;;;5115443;28;20205;-65
2023/08/15 13:01:58;;;;;;;7.22;6.63;;;;;;;;;;5116003;28;20206;-65
2023/08/15 13:04:26;;;;;;;8.18;7.45;;;;;;;;;;5116357;28;20582;-65
2023/08/15 13:06:53;;;;;;;7.93;7.30;;;;;;;;;;5116611;28;20210;-65
2023/08/15 13:09:20;;;;;;;8.18;7.55;;;;;;;;;;5115774;28;20587;-66
2023/08/15 13:11:48;;;;;;;8.13;7.32;;;;;;;;;;5116045;28;20598;-66
2023/08/15 13:14:17;;;;;;;9.95;8.10;;;;;;;;;;5114564;28;20280;-66
2023/08/15 13:16:46;;;;;;;8.57;7.88;;;;;;;;;;5115838;28;20362;-66
2023/08/15 13:19:13;;;;;;;8.10;7.40;;;;;;;;;;5115653;28;20249;-66
2023/08/15 13:21:41;;;;;;;8.65;7.85;;;;;;;;;;5115348;28;20203;-66
2023/08/15 13:24:08;;;;;;;11.75;7.47;;;;;;;;;;5116495;28;20637;-66
2023/08/15 13:26:36;;;;;;;7.38;5.85;;;;;;;;;;5116790;28;20221;-66
2023/08/15 13:29:04;;;;;;;7.57;5.68;;;;;;;;;;5116094;28;20209;-66
2023/08/15 13:31:31;;;;;;;6.80;5.55;;;;;;;;;;5116350;28;20203;-66
2023/08/15 13:34:00;;;;;;;5.20;4.70;;;;;;;;;;5116141;28;20245;-66
2023/08/15 13:36:27;;;;;;;4.25;3.88;;;;;;;;;;5115366;28;20230;-65
2023/08/15 13:38:55;;;;;;;3.90;3.60;;;;;;;;;;5115665;28;20792;-66
2023/08/15 13:41:22;;;;;;;4.30;3.90;;;;;;;;;;5115510;28;20214;-65
2023/08/15 13:43:50;;;;;;;4.38;3.78;;;;;;;;;;5115736;28;20241;-66
2023/08/15 13:46:17;;;;;;;3.90;3.58;;;;;;;;;;5115882;28;20587;-65
2023/08/15 13:48:45;;;;;;;3.92;3.55;;;;;;;;;;5115551;28;20203;-65
2023/08/15 13:51:16;;;;;;;4.05;3.65;;;;;;;;;;5115574;28;20201;-65
2023/08/15 13:53:44;;;;;;;3.90;3.60;;;;;;;;;;5115836;28;20195;-65
2023/08/15 13:56:12;;;;;;;3.53;3.22;;;;;;;;;;5115111;28;20199;-65
2023/08/15 13:58:39;;;;;;;4.10;3.70;;;;;;;;;;5119292;28;20241;-66
2023/08/15 14:01:07;;;;;;;4.15;3.53;;;;;;;;;;5119691;28;20230;-65
2023/08/15 14:03:34;;;;;;;4.18;3.78;;;;;;;;;;5119580;28;20195;-65
2023/08/15 14:06:03;;;;;;;4.05;3.42;;;;;;;;;;5118910;28;20229;-66
2023/08/15 14:08:32;;;;;;;3.80;3.50;;;;;;;;;;5119502;28;20203;-66
2023/08/15 14:11:00;;;;;;;3.80;3.50;;;;;;;;;;5120567;28;20483;-66
2023/08/15 14:13:27;;;;;;;4.18;3.88;;;;;;;;;;5119794;28;20590;-65
2023/08/15 14:15:55;;;;;;;4.80;3.80;;;;;;;;;;5119766;28;20213;-70
2023/08/15 14:18:22;;;;;;;4.38;3.97;;;;;;;;;;5119430;28;20636;-66
2023/08/15 14:20:50;;;;;;;5.10;4.60;;;;;;;;;;5118812;27;20206;-65
2023/08/15 14:23:17;;;;;;;5.03;4.60;;;;;;;;;;5118622;28;20205;-65
2023/08/15 14:25:46;;;;;;;4.25;3.95;;;;;;;;;;5117258;28;20209;-65
2023/08/15 14:28:13;;;;;;;4.63;4.05;;;;;;;;;;5118610;28;20492;-66
2023/08/15 14:30:41;;;;;;;4.72;4.32;;;;;;;;;;5118734;28;20238;-66
2023/08/15 14:33:11;;;;;;;4.90;4.13;;;;;;;;;;5118950;28;20259;-65
2023/08/15 14:35:39;;;;;;;4.32;4.00;;;;;;;;;;5118228;28;20231;-66
2023/08/15 14:38:07;;;;;;;4.20;3.80;;;;;;;;;;5118587;28;20309;-65
2023/08/15 14:40:34;;;;;;;4.32;3.92;;;;;;;;;;5117477;28;20330;-65
2023/08/15 14:43:03;;;;;;;5.13;4.45;;;;;;;;;;5119248;28;20264;-66
2023/08/15 14:45:30;;;;;;;4.35;3.95;;;;;;;;;;5118471;28;20206;-65
2023/08/15 14:47:58;;;;;;;4.80;4.40;;;;;;;;;;5118753;28;20199;-65
2023/08/15 14:50:25;;;;;;;4.28;3.88;;;;;;;;;;5118871;28;20221;-65
2023/08/15 14:52:52;;;;;;;3.97;3.67;;;;;;;;;;5118049;28;20199;-66